Time;durP1;ratioP1;P1;durP2;ratioP2;P2;SDS_P1;SDS_P2;PMS_P1;PMS_P2;Temp;Humidity;BMP_temperature;BMP_pressure;BME280_temperature;BME280_humidity;BME280_pressure;Samples;Min_cycle;Max_cycle;Signal;HPM_P1;HPM_P2
2022/04/11 00:02:14;;;;;;;0.60;0.60;;;;;;;4.67;66.47;98772.72;4823397;29;20107;-82
2022/04/11 00:04:42;;;;;;;0.60;0.60;;;;;;;4.69;66.29;98773.34;4823048;29;20115;-82
2022/04/11 00:07:09;;;;;;;0.50;0.50;;;;;;;4.72;66.27;98774.78;4823424;29;20050;-82
2022/04/11 00:09:36;;;;;;;0.60;0.60;;;;;;;4.72;66.27;98772.91;4823513;29;20086;-82
2022/04/11 00:12:03;;;;;;;0.60;0.60;;;;;;;4.74;65.92;98773.53;4823143;29;20078;-82
2022/04/11 00:14:30;;;;;;;0.50;0.50;;;;;;;4.74;66.11;98778.88;4821862;29;20102;-82
2022/04/11 00:16:57;;;;;;;0.50;0.50;;;;;;;4.73;66.17;98773.72;4823185;29;20055;-82
2022/04/11 00:19:24;;;;;;;0.60;0.60;;;;;;;4.74;66.54;98773.53;4823381;29;20062;-81
2022/04/11 00:21:52;;;;;;;0.60;0.60;;;;;;;4.73;66.20;98771.88;4821462;29;20550;-82
2022/04/11 00:24:19;;;;;;;0.60;0.60;;;;;;;4.71;66.35;98767.78;4822945;29;20050;-81
2022/04/11 00:26:46;;;;;;;0.57;0.57;;;;;;;4.71;66.21;98773.97;4822872;29;20066;-81
2022/04/11 00:29:13;;;;;;;0.50;0.50;;;;;;;4.73;66.29;98769.19;4823080;29;20588;-83
2022/04/11 00:31:40;;;;;;;0.50;0.50;;;;;;;4.72;66.22;98770.25;4836548;29;20061;-81
2022/04/11 00:34:08;;;;;;;0.60;0.60;;;;;;;4.70;65.96;98766.94;4836993;29;20055;-80
2022/04/11 00:36:35;;;;;;;0.57;0.57;;;;;;;4.65;66.30;98768.63;4823093;29;20054;-83
2022/04/11 00:39:02;;;;;;;0.60;0.60;;;;;;;4.63;66.37;98760.81;4811539;29;20059;-82
2022/04/11 00:41:29;;;;;;;0.60;0.60;;;;;;;4.59;66.03;98759.59;4804845;29;20050;-82
2022/04/11 00:43:57;;;;;;;0.60;0.60;;;;;;;4.56;66.12;98768.06;4804457;29;20058;-82
2022/04/11 00:46:24;;;;;;;0.50;0.50;;;;;;;4.54;66.35;98770.13;4804560;29;20137;-82
2022/04/11 00:48:52;;;;;;;0.60;0.60;;;;;;;4.49;66.40;98762.72;4804378;29;20059;-82
2022/04/11 00:51:22;;;;;;;0.60;0.60;;;;;;;4.48;66.36;98762.91;4804350;29;20054;-82
2022/04/11 00:53:51;;;;;;;0.60;0.60;;;;;;;4.47;66.39;98759.44;4804167;29;20061;-82
2022/04/11 00:56:19;;;;;;;0.60;0.60;;;;;;;4.47;66.32;98759.44;4803303;29;20184;-80
2022/04/11 00:58:46;;;;;;;0.60;0.60;;;;;;;4.50;66.61;98766.22;4804217;29;20145;-82
2022/04/11 01:01:16;;;;;;;0.50;0.50;;;;;;;4.50;66.76;98767.03;4802944;29;20537;-81
2022/04/11 01:03:44;;;;;;;0.50;0.50;;;;;;;4.48;66.88;98762.91;4818387;29;20057;-81
2022/04/11 01:06:11;;;;;;;0.50;0.50;;;;;;;4.50;66.93;98766.22;4804453;29;20058;-81
2022/04/11 01:08:39;;;;;;;0.50;0.50;;;;;;;4.51;67.15;98774.03;4803272;29;20081;-81
2022/04/11 01:11:06;;;;;;;0.50;0.50;;;;;;;4.50;67.59;98771.56;4804120;29;20601;-81
2022/04/11 01:13:34;;;;;;;0.60;0.60;;;;;;;4.49;67.79;98772.59;4804506;29;20085;-81
2022/04/11 01:16:04;;;;;;;0.60;0.60;;;;;;;4.48;67.91;98768.28;4818204;29;20055;-81
2022/04/11 01:18:35;;;;;;;0.60;0.60;;;;;;;4.47;67.96;98766.63;4818351;29;20065;-81
2022/04/11 01:21:03;;;;;;;0.60;0.60;;;;;;;4.44;68.06;98772.41;4804128;29;20057;-81
2022/04/11 01:23:30;;;;;;;0.60;0.60;;;;;;;4.42;68.39;98769.13;4803243;29;20054;-82
2022/04/11 01:25:57;;;;;;;0.50;0.50;;;;;;;4.40;68.33;98765.84;4802454;29;20468;-82
2022/04/11 01:28:27;;;;;;;0.50;0.50;;;;;;;4.38;68.63;98770.56;4818241;29;20051;-81
2022/04/11 01:30:55;;;;;;;0.50;0.50;;;;;;;4.37;68.74;98771.59;4804102;29;20082;-82
2022/04/11 01:33:28;;;;;;;0.50;0.50;;;;;;;4.36;68.67;98769.97;4803891;29;20515;-82
2022/04/11 01:35:59;;;;;;;0.50;0.50;;;;;;;4.33;68.54;98772.03;4802903;29;20459;-82
2022/04/11 01:38:27;;;;;;;0.50;0.50;;;;;;;4.31;68.32;98770.59;4802721;29;20050;-82
2022/04/11 01:40:56;;;;;;;0.50;0.50;;;;;;;4.27;68.77;98772.84;4802649;29;20054;-82
2022/04/11 01:43:25;;;;;;;0.50;0.50;;;;;;;4.25;68.73;98766.91;4803933;29;20065;-82
2022/04/11 01:45:53;;;;;;;0.50;0.50;;;;;;;4.24;68.68;98759.09;4802619;29;20119;-82
2022/04/11 01:48:32;;;;;;;0.60;0.60;;;;;;;4.21;68.77;98765.69;4802890;29;20158;-81
2022/04/11 01:50:59;;;;;;;0.50;0.50;;;;;;;4.21;69.12;98778.22;4817739;29;20050;-81
2022/04/11 01:53:27;;;;;;;0.60;0.60;;;;;;;4.19;69.04;98780.28;4804120;29;20423;-82
2022/04/11 01:55:54;;;;;;;0.60;0.60;;;;;;;4.16;69.42;98768.16;4803956;29;20404;-82
2022/04/11 01:58:21;;;;;;;0.50;0.50;;;;;;;4.15;69.52;98761.16;4804399;29;20469;-81
2022/04/11 02:00:48;;;;;;;0.50;0.50;;;;;;;4.15;69.69;98769.19;4804264;29;20104;-82
2022/04/11 02:03:16;;;;;;;0.50;0.50;;;;;;;4.10;69.64;98760.97;4805874;29;20115;-83
2022/04/11 02:05:43;;;;;;;0.50;0.50;;;;;;;4.09;69.68;98756.66;4802831;29;20115;-81
2022/04/11 02:08:10;;;;;;;0.60;0.60;;;;;;;4.08;70.18;98757.72;4817774;29;20054;-82
2022/04/11 02:10:39;;;;;;;0.50;0.50;;;;;;;4.07;70.47;98758.72;4818358;29;20059;-81
2022/04/11 02:13:07;;;;;;;0.50;0.50;;;;;;;4.07;70.36;98764.88;4805157;29;20530;-81
2022/04/11 02:15:34;;;;;;;0.60;0.60;;;;;;;4.08;70.37;98760.38;4819150;29;20057;-82
2022/04/11 02:18:02;;;;;;;0.57;0.57;;;;;;;4.03;70.48;98753.00;4805719;29;20583;-82
2022/04/11 02:20:30;;;;;;;0.60;0.60;;;;;;;3.98;70.69;98744.78;4804098;29;20423;-82
2022/04/11 02:22:59;;;;;;;0.60;0.60;;;;;;;3.95;70.87;98744.38;4803057;29;20408;-81
2022/04/11 02:25:27;;;;;;;0.60;0.60;;;;;;;3.93;71.12;98749.94;4802911;29;20058;-82
2022/04/11 02:27:57;;;;;;;0.50;0.50;;;;;;;3.89;71.26;98746.03;4803956;29;20066;-81
2022/04/11 02:30:26;;;;;;;0.60;0.60;;;;;;;3.85;71.28;98753.63;4805515;29;20051;-82
2022/04/11 02:32:53;;;;;;;0.70;0.70;;;;;;;3.83;71.60;98753.00;4806285;29;20057;-82
2022/04/11 02:35:22;;;;;;;0.60;0.60;;;;;;;3.88;71.47;98749.72;4805331;29;20587;-81
2022/04/11 02:37:50;;;;;;;0.60;0.60;;;;;;;3.87;71.88;98745.41;4804325;29;20608;-81
2022/04/11 02:40:17;;;;;;;0.60;0.60;;;;;;;3.88;71.81;98745.19;4805502;29;20456;-82
2022/04/11 02:43:05;;;;;;;0.50;0.50;;;;;;;3.85;71.65;98745.63;4805002;29;20062;-81
2022/04/11 02:45:35;;;;;;;0.55;0.55;;;;;;;3.86;71.89;98741.09;4805129;29;20084;-81
2022/04/11 02:48:07;;;;;;;0.50;0.50;;;;;;;3.85;71.97;98729.59;4804848;29;20058;-81
2022/04/11 02:50:39;;;;;;;0.57;0.57;;;;;;;3.87;71.98;98727.56;4820215;29;20519;-81
2022/04/11 02:53:09;;;;;;;0.50;0.50;;;;;;;3.88;71.77;98723.03;4811912;29;20081;-81
2022/04/11 02:55:36;;;;;;;0.60;0.60;;;;;;;3.89;72.00;98730.00;4812435;29;20059;-82
2022/04/11 02:58:04;;;;;;;0.60;0.60;;;;;;;3.91;71.97;98742.13;4822019;29;20089;-82
2022/04/11 03:00:31;;;;;;;0.60;0.60;;;;;;;3.91;71.97;98743.97;4805116;29;20169;-82
2022/04/11 03:02:59;;;;;;;0.63;0.63;;;;;;;3.96;72.11;98751.34;4806131;29;20059;-82
2022/04/11 03:05:30;;;;;;;0.60;0.60;;;;;;;4.00;72.07;98747.22;4820268;29;20055;-82
2022/04/11 03:07:58;;;;;;;0.60;0.60;;;;;;;4.09;71.83;98754.00;4804876;29;20055;-82
2022/04/11 03:10:25;;;;;;;0.70;0.70;;;;;;;4.11;71.75;98751.94;4805854;29;20054;-82
2022/04/11 03:12:58;;;;;;;0.60;0.60;;;;;;;4.08;71.92;98758.53;4804511;29;20138;-82
2022/04/11 03:15:26;;;;;;;0.60;0.60;;;;;;;4.07;71.84;98748.03;4805788;29;20372;-82
2022/04/11 03:17:53;;;;;;;0.60;0.60;;;;;;;4.06;71.63;98746.41;4805684;29;20089;-83
2022/04/11 03:20:20;;;;;;;0.60;0.60;;;;;;;4.06;71.62;98749.09;4804755;29;20067;-82
2022/04/11 03:22:49;;;;;;;0.60;0.60;;;;;;;4.10;71.48;98756.47;4804666;29;20427;-82
2022/04/11 03:25:16;;;;;;;0.50;0.50;;;;;;;4.10;71.55;98755.63;4804586;29;20690;-80
2022/04/11 03:27:43;;;;;;;0.60;0.60;;;;;;;4.07;71.62;98748.03;4806204;29;20472;-83
2022/04/11 03:30:12;;;;;;;0.50;0.50;;;;;;;4.08;71.44;98736.34;4804581;29;20059;-81
2022/04/11 03:32:40;;;;;;;0.60;0.60;;;;;;;4.05;71.55;98734.91;4804501;29;20053;-82
2022/04/11 03:35:10;;;;;;;0.50;0.50;;;;;;;4.00;71.76;98726.72;4804310;29;20103;-81
2022/04/11 03:37:39;;;;;;;0.60;0.60;;;;;;;3.96;71.80;98722.81;4804490;29;20151;-82
2022/04/11 03:40:20;;;;;;;0.60;0.60;;;;;;;3.95;72.22;98723.00;4804406;29;20059;-82
2022/04/11 03:42:47;;;;;;;0.60;0.60;;;;;;;3.96;72.13;98727.31;4803818;29;20078;-81
2022/04/11 03:45:15;;;;;;;0.60;0.60;;;;;;;3.95;72.11;98721.19;4804797;29;20132;-82
2022/04/11 03:47:45;;;;;;;0.57;0.57;;;;;;;3.94;72.19;98724.84;4805151;29;20054;-82
2022/04/11 03:50:15;;;;;;;0.60;0.60;;;;;;;3.98;72.19;98720.75;4804109;29;20057;-82
2022/04/11 03:52:44;;;;;;;0.57;0.57;;;;;;;3.96;72.26;98695.28;4804266;29;20093;-82
2022/04/11 03:55:12;;;;;;;0.50;0.50;;;;;;;3.92;71.92;98692.19;4804098;29;20065;-81
2022/04/11 03:57:51;;;;;;;0.70;0.70;;;;;;;3.91;72.08;98687.91;4803563;29;20057;-83
2022/04/11 04:00:19;;;;;;;0.60;0.60;;;;;;;3.90;72.03;98676.41;4804266;29;20069;-83
2022/04/11 04:03:11;;;;;;;0.60;0.60;;;;;;;3.95;72.00;98656.25;4803929;29;20463;-83
2022/04/11 04:05:45;;;;;;;0.60;0.60;;;;;;;3.94;71.89;98654.63;4803516;29;20104;-83
2022/04/11 04:08:17;;;;;;;0.60;0.60;;;;;;;3.97;71.84;98652.34;4803540;29;20476;-83
2022/04/11 04:10:56;;;;;;;0.60;0.60;;;;;;;3.96;72.06;98660.56;4804072;29;20078;-82
2022/04/11 04:13:24;;;;;;;0.60;0.60;;;;;;;3.95;71.84;98646.41;4805154;29;20487;-81
2022/04/11 04:15:52;;;;;;;0.60;0.60;;;;;;;3.92;71.83;98662.81;4804397;29;20054;-84
2022/04/11 04:18:19;;;;;;;0.70;0.70;;;;;;;3.92;71.87;98662.81;4804666;29;20131;-81
2022/04/11 04:20:46;;;;;;;0.70;0.70;;;;;;;3.94;71.90;98665.31;4812740;29;20438;-81
2022/04/11 04:23:16;;;;;;;0.70;0.70;;;;;;;3.97;71.87;98662.22;4827023;29;20082;-82
2022/04/11 04:25:44;;;;;;;0.70;0.70;;;;;;;3.96;71.84;98656.06;4827947;29;20066;-82
2022/04/11 04:28:13;;;;;;;0.65;0.65;;;;;;;3.96;71.96;98657.91;4814755;29;20058;-81
2022/04/11 04:30:40;;;;;;;0.60;0.60;;;;;;;3.97;71.88;98644.31;4824757;29;20438;-80
2022/04/11 04:33:07;;;;;;;0.70;0.70;;;;;;;3.98;71.55;98629.97;4824704;29;20515;-82
2022/04/11 04:35:35;;;;;;;0.70;0.70;;;;;;;3.99;71.75;98617.44;4814418;29;20050;-82
2022/04/11 04:38:06;;;;;;;0.70;0.70;;;;;;;4.00;71.53;98603.88;4817780;29;20061;-80
2022/04/11 04:40:44;;;;;;;0.60;0.60;;;;;;;3.99;71.32;98588.06;4820613;29;20062;-84
2022/04/11 04:43:14;;;;;;;0.60;0.60;;;;;;;3.96;71.60;98588.50;4830586;29;20054;-82
2022/04/11 04:45:45;;;;;;;0.63;0.63;;;;;;;3.99;71.62;98575.53;4486951;29;10000613;-82
2022/04/11 04:48:30;;;;;;;0.70;0.70;;;;;;;4.06;71.36;98560.28;4832929;29;20082;-82
2022/04/11 04:50:57;;;;;;;0.80;0.80;;;;;;;4.13;71.30;98552.25;4817181;29;20430;-83
2022/04/11 04:53:27;;;;;;;0.70;0.70;;;;;;;4.22;70.90;98540.25;4820652;29;20202;-82
2022/04/11 04:55:58;;;;;;;0.70;0.70;;;;;;;4.36;70.55;98537.53;4814592;29;20059;-83
2022/04/11 04:58:26;;;;;;;0.60;0.60;;;;;;;4.46;70.44;98533.34;4814174;29;20395;-81
2022/04/11 05:00:53;;;;;;;0.63;0.63;;;;;;;4.53;70.17;98535.94;4814311;29;20511;-84
2022/04/11 05:03:23;;;;;;;0.60;0.60;;;;;;;4.52;70.30;98537.00;4791415;29;20054;-82
2022/04/11 05:05:51;;;;;;;0.60;0.60;;;;;;;4.55;70.49;98549.91;4815628;29;20112;-81
2022/04/11 05:08:19;;;;;;;0.60;0.60;;;;;;;4.50;70.58;98557.78;4811891;29;20046;-81
2022/04/11 05:10:47;;;;;;;0.60;0.60;;;;;;;4.44;70.98;98561.31;4820886;29;20050;-82
2022/04/11 05:13:14;;;;;;;0.60;0.60;;;;;;;4.42;71.07;98560.72;4808625;29;20086;-83
2022/04/11 05:15:42;;;;;;;0.60;0.60;;;;;;;4.36;71.16;98573.06;4787931;29;20054;-83
2022/04/11 05:18:15;;;;;;;0.60;0.60;;;;;;;4.35;71.27;98563.41;4818136;29;20510;-83
2022/04/11 05:20:43;;;;;;;0.60;0.60;;;;;;;4.21;72.04;98554.66;4802753;29;20062;-84
2022/04/11 05:23:11;;;;;;;0.57;0.57;;;;;;;4.13;72.52;98538.91;4817479;29;20112;-83
2022/04/11 05:25:41;;;;;;;0.60;0.60;;;;;;;4.07;72.83;98542.41;4817784;29;20097;-83
2022/04/11 05:28:09;;;;;;;0.63;0.63;;;;;;;3.96;73.29;98508.38;4820784;29;20134;-82
2022/04/11 05:30:49;;;;;;;0.60;0.60;;;;;;;3.90;73.82;98505.53;4799255;29;20058;-83
2022/04/11 05:33:18;;;;;;;0.60;0.60;;;;;;;3.91;74.05;98507.16;4822855;29;20058;-81
2022/04/11 05:35:45;;;;;;;0.60;0.60;;;;;;;3.93;73.93;98492.81;4811568;29;20074;-82
2022/04/11 05:38:14;;;;;;;0.60;0.60;;;;;;;3.90;74.04;98492.19;4820118;29;20058;-85
2022/04/11 05:40:43;;;;;;;0.60;0.60;;;;;;;3.86;74.56;98480.28;4823363;29;20111;-83
2022/04/11 05:43:16;;;;;;;0.60;0.60;;;;;;;3.81;74.92;98474.78;4814180;29;20538;-83
2022/04/11 05:45:44;;;;;;;0.60;0.60;;;;;;;3.78;75.31;98461.88;4810439;29;20146;-83
2022/04/11 05:48:11;;;;;;;0.60;0.60;;;;;;;3.72;75.91;98441.34;4815679;29;20086;-85
2022/04/11 05:50:40;;;;;;;0.70;0.70;;;;;;;3.82;76.09;98423.03;4824486;29;20058;-83
2022/04/11 05:53:07;;;;;;;0.70;0.70;;;;;;;3.94;76.07;98392.97;4818501;29;20061;-82
2022/04/11 05:55:35;;;;;;;0.70;0.70;;;;;;;3.91;77.28;98411.06;4831848;29;20050;-83
2022/04/11 05:58:02;;;;;;;0.60;0.60;;;;;;;3.72;78.29;98419.19;4831753;29;20074;-82
2022/04/11 06:00:30;;;;;;;0.70;0.70;;;;;;;3.56;79.49;98412.50;4824912;29;20073;-81
2022/04/11 06:02:59;;;;;;;0.60;0.60;;;;;;;3.43;80.24;98429.41;4823685;29;20663;-82
2022/04/11 06:05:26;;;;;;;0.60;0.60;;;;;;;3.34;81.14;98428.00;4824408;29;20065;-83
2022/04/11 06:07:53;;;;;;;0.60;0.60;;;;;;;3.24;81.79;98402.63;4823846;29;20065;-82
2022/04/11 06:10:21;;;;;;;0.60;0.60;;;;;;;3.21;81.99;98427.00;4807368;29;20578;-82
2022/04/11 06:12:50;;;;;;;0.55;0.55;;;;;;;3.11;82.96;98436.50;4804622;29;20115;-82
2022/04/11 06:15:18;;;;;;;0.60;0.60;;;;;;;3.07;83.13;98449.44;4819754;29;20076;-83
2022/04/11 06:17:51;;;;;;;0.60;0.60;;;;;;;3.04;83.36;98464.00;4819697;29;20046;-82
2022/04/11 06:20:18;;;;;;;0.70;0.70;;;;;;;3.09;83.47;98481.22;4815653;29;20141;-82
2022/04/11 06:22:46;;;;;;;0.60;0.60;;;;;;;3.08;83.77;98540.91;4816181;29;20057;-81
2022/04/11 06:25:13;;;;;;;0.70;0.70;;;;;;;3.06;83.76;98628.28;4801898;29;20055;-81
2022/04/11 06:27:41;;;;;;;0.60;0.60;;;;;;;3.07;84.16;98676.06;4803057;29;20138;-82
2022/04/11 06:30:08;;;;;;;0.70;0.70;;;;;;;3.08;83.74;98690.22;4802916;29;20066;-83
2022/04/11 06:32:39;;;;;;;0.70;0.70;;;;;;;3.01;84.27;98700.84;4815170;29;20088;-81
2022/04/11 06:35:07;;;;;;;0.60;0.60;;;;;;;2.91;85.47;98698.63;4809399;29;20426;-84
2022/04/11 06:37:35;;;;;;;0.60;0.60;;;;;;;2.90;86.14;98704.94;4831358;29;20062;-81
2022/04/11 06:40:03;;;;;;;0.70;0.70;;;;;;;2.86;86.60;98703.72;4809182;29;20055;-82
2022/04/11 06:42:32;;;;;;;0.60;0.60;;;;;;;2.71;87.32;98689.72;4827824;29;20108;-81
2022/04/11 06:45:04;;;;;;;0.80;0.80;;;;;;;2.63;87.76;98647.28;4822327;29;20062;-81
2022/04/11 06:47:33;;;;;;;0.80;0.80;;;;;;;2.58;88.51;98655.88;4822282;29;20064;-83
2022/04/11 06:50:02;;;;;;;0.70;0.70;;;;;;;2.47;88.83;98641.31;4820939;29;20051;-80
2022/04/11 06:52:29;;;;;;;0.40;0.40;;;;;;;2.39;89.43;98654.81;4814922;29;20082;-83
2022/04/11 06:54:56;;;;;;;0.70;0.70;;;;;;;2.42;89.97;98657.06;4807776;29;20058;-82
2022/04/11 06:57:25;;;;;;;0.77;0.77;;;;;;;2.48;90.18;98650.13;4810050;29;20055;-83
2022/04/11 06:59:53;;;;;;;0.70;0.70;;;;;;;2.45;90.61;98645.19;4815274;29;20541;-84
2022/04/11 07:02:21;;;;;;;0.70;0.70;;;;;;;2.49;90.55;98620.63;4822089;29;20051;-83
2022/04/11 07:04:48;;;;;;;0.63;0.63;;;;;;;2.58;90.82;98608.78;4821774;29;20058;-81
2022/04/11 07:07:15;;;;;;;0.60;0.60;;;;;;;2.64;90.83;98611.66;4821799;29;20114;-82
2022/04/11 07:09:43;;;;;;;0.60;0.60;;;;;;;2.64;90.64;98593.00;4812184;29;20063;-80
2022/04/11 07:12:10;;;;;;;0.65;0.65;;;;;;;2.70;90.61;98568.19;4807946;29;20085;-82
2022/04/11 07:14:38;;;;;;;0.70;0.70;;;;;;;2.78;90.43;98560.81;4806811;29;20050;-80
2022/04/11 07:17:06;;;;;;;0.70;0.70;;;;;;;2.77;89.94;98545.03;4806166;29;20059;-81
2022/04/11 07:19:33;;;;;;;0.70;0.70;;;;;;;2.70;89.96;98547.69;4802767;29;20162;-80
2022/04/11 07:22:00;;;;;;;0.65;0.65;;;;;;;2.69;90.05;98556.72;4802503;29;20428;-80
2022/04/11 07:24:28;;;;;;;0.70;0.70;;;;;;;2.71;90.38;98553.81;4810887;29;20818;-81
2022/04/11 07:26:58;;;;;;;0.60;0.60;;;;;;;2.82;90.28;98537.25;4802054;29;20124;-83
2022/04/11 07:29:26;;;;;;;0.70;0.70;;;;;;;2.85;90.56;98534.16;4802246;29;20054;-82
2022/04/11 07:31:53;;;;;;;0.70;0.70;;;;;;;2.78;90.31;98533.34;4805066;29;20059;-81
2022/04/11 07:34:20;;;;;;;0.60;0.60;;;;;;;2.80;90.34;98541.94;4811850;29;20057;-84
2022/04/11 07:36:47;;;;;;;0.60;0.60;;;;;;;2.87;90.44;98547.28;4819506;29;20525;-83
2022/04/11 07:39:15;;;;;;;0.60;0.60;;;;;;;2.88;90.65;98539.06;4823013;29;20054;-82
2022/04/11 07:41:42;;;;;;;0.70;0.70;;;;;;;2.85;90.65;98539.50;4816967;29;20547;-82
2022/04/11 07:44:18;;;;;;;0.70;0.70;;;;;;;2.89;90.96;98519.41;4819451;29;20115;-83
2022/04/11 07:46:48;;;;;;;0.63;0.63;;;;;;;2.91;90.69;98496.03;4802354;29;20087;-81
2022/04/11 07:49:17;;;;;;;0.70;0.70;;;;;;;2.99;90.51;98485.16;4812427;29;20058;-83
2022/04/11 07:51:45;;;;;;;0.73;0.73;;;;;;;3.06;90.03;98487.78;4812599;29;20145;-82
2022/04/11 07:54:12;;;;;;;0.60;0.60;;;;;;;3.11;89.56;98477.31;4815093;29;20498;-84
2022/04/11 07:56:41;;;;;;;0.70;0.70;;;;;;;3.15;89.18;98469.72;4802789;29;20103;-82
2022/04/11 07:59:11;;;;;;;0.70;0.70;;;;;;;3.23;89.22;98491.63;4810110;29;20054;-83
2022/04/11 08:01:38;;;;;;;0.70;0.70;;;;;;;3.32;88.93;98496.72;4806929;29;20054;-81
2022/04/11 08:04:10;;;;;;;0.70;0.70;;;;;;;3.29;88.71;98483.81;4814884;29;20062;-83
2022/04/11 08:06:37;;;;;;;0.65;0.65;;;;;;;3.37;88.72;98487.09;4823899;29;20141;-84
2022/04/11 08:09:04;;;;;;;0.60;0.60;;;;;;;3.30;88.30;98480.97;4816094;29;20051;-82
2022/04/11 08:11:31;;;;;;;0.70;0.70;;;;;;;3.26;88.19;98471.72;4809499;29;20426;-83
2022/04/11 08:13:59;;;;;;;0.70;0.70;;;;;;;3.22;88.08;98473.19;4821885;29;20419;-83
2022/04/11 08:16:26;;;;;;;0.70;0.70;;;;;;;3.23;88.05;98467.63;4803819;29;20693;-87
2022/04/11 08:18:54;;;;;;;0.70;0.70;;;;;;;3.19;88.04;98473.59;4806028;29;20070;-84
2022/04/11 08:21:21;;;;;;;0.70;0.70;;;;;;;3.15;87.96;98457.19;4809145;29;20451;-83
2022/04/11 08:23:48;;;;;;;0.70;0.70;;;;;;;3.20;88.11;98454.72;4810505;29;20142;-83
2022/04/11 08:26:15;;;;;;;0.70;0.70;;;;;;;3.25;88.23;98454.09;4814087;29;20062;-85
2022/04/11 08:28:42;;;;;;;0.70;0.70;;;;;;;3.30;88.24;98450.81;4819565;29;20557;-83
2022/04/11 08:31:09;;;;;;;0.68;0.68;;;;;;;3.32;88.34;98444.22;4818597;29;20062;-83
2022/04/11 08:33:37;;;;;;;0.60;0.60;;;;;;;3.31;88.48;98457.75;4817815;29;20081;-84
2022/04/11 08:36:04;;;;;;;0.70;0.70;;;;;;;3.35;88.29;98473.13;4807878;29;20063;-83
2022/04/11 08:38:31;;;;;;;0.60;0.60;;;;;;;3.30;87.94;98470.28;4806994;29;20066;-83
2022/04/11 08:41:02;;;;;;;0.70;0.70;;;;;;;3.24;88.07;98473.78;4806622;29;20054;-84
2022/04/11 08:43:31;;;;;;;0.70;0.70;;;;;;;3.31;88.03;98476.44;4801789;29;20081;-84
2022/04/11 08:46:02;;;;;;;0.60;0.60;;;;;;;3.32;87.97;98470.91;4814604;29;20088;-83
2022/04/11 08:48:33;;;;;;;0.50;0.50;;;;;;;3.41;87.61;98474.13;4816801;29;20058;-84
2022/04/11 08:51:03;;;;;;;0.60;0.60;;;;;;;3.41;87.50;98484.81;4804664;29;20054;-84
2022/04/11 08:53:31;;;;;;;0.70;0.70;;;;;;;3.36;87.47;98465.94;4805571;29;20126;-83
2022/04/11 08:55:58;;;;;;;0.50;0.50;;;;;;;3.37;87.15;98457.75;4808774;29;20085;-83
2022/04/11 08:58:28;;;;;;;0.55;0.55;;;;;;;3.39;87.01;98471.69;4806682;29;20388;-82
2022/04/11 09:00:55;;;;;;;0.63;0.63;;;;;;;3.35;86.89;98469.66;4809487;29;20079;-85
2022/04/11 09:03:25;;;;;;;0.65;0.65;;;;;;;3.35;87.25;98475.81;4805771;29;20050;-84
2022/04/11 09:06:07;;;;;;;0.60;0.60;;;;;;;3.41;87.63;98506.97;4806633;29;20046;-85
2022/04/11 09:08:50;;;;;;;0.60;0.60;;;;;;;3.45;87.36;98540.22;4816111;29;20082;-84
2022/04/11 09:11:34;;;;;;;0.60;0.60;;;;;;;3.38;87.09;98531.41;4802978;29;20081;-84
2022/04/11 09:14:04;;;;;;;0.70;0.70;;;;;;;3.29;86.98;98561.97;4807429;29;20165;-83
2022/04/11 09:16:53;;;;;;;0.60;0.60;;;;;;;3.26;87.00;98539.22;4807067;29;20059;-84
2022/04/11 09:19:25;;;;;;;0.70;0.70;;;;;;;3.20;86.91;98552.56;4800819;29;20062;-84
2022/04/11 09:22:12;;;;;;;0.63;0.63;;;;;;;3.21;86.84;98551.53;4799668;29;20055;-83
2022/04/11 09:24:39;;;;;;;0.60;0.60;;;;;;;3.23;87.02;98552.16;4799378;29;20055;-83
2022/04/11 09:27:06;;;;;;;0.60;0.60;;;;;;;3.21;86.94;98551.53;4810820;29;20089;-83
2022/04/11 09:29:42;;;;;;;0.70;0.70;;;;;;;3.15;86.27;98539.06;4806936;29;20515;-83
2022/04/11 09:32:14;;;;;;;0.70;0.70;;;;;;;3.09;86.18;98538.03;4801733;29;20066;-84
2022/04/11 09:34:52;;;;;;;0.70;0.70;;;;;;;3.03;86.23;98546.84;4814338;29;20086;-82
2022/04/11 09:37:20;;;;;;;0.70;0.70;;;;;;;3.16;86.37;98562.00;4805377;29;20119;-85
2022/04/11 09:39:58;;;;;;;0.70;0.70;;;;;;;3.19;86.15;98545.59;4809584;29;20054;-85
2022/04/11 09:42:32;;;;;;;0.70;0.70;;;;;;;3.21;86.28;98532.88;4812734;29;20061;-86
2022/04/11 09:45:00;;;;;;;0.70;0.70;;;;;;;3.19;85.83;98535.75;4812198;29;20111;-85
2022/04/11 09:48:04;;;;;;;0.60;0.60;;;;;;;3.21;86.47;98556.88;4813105;29;20181;-84
2022/04/11 09:50:32;;;;;;;0.70;0.70;;;;;;;3.22;86.50;98545.19;4808750;29;20092;-85
2022/04/11 09:56:41;;;;;;;0.70;0.70;;;;;;;3.04;86.86;98480.00;4803550;29;20439;-84
2022/04/11 09:59:10;;;;;;;0.70;0.70;;;;;;;3.12;86.78;98488.81;4809510;29;20821;-86
2022/04/11 10:01:37;;;;;;;0.70;0.70;;;;;;;3.05;87.05;98491.47;4818674;29;20050;-83
2022/04/11 10:04:04;;;;;;;0.70;0.70;;;;;;;3.06;87.42;98476.31;4809325;29;20063;-83
2022/04/11 10:06:31;;;;;;;0.75;0.75;;;;;;;3.12;87.75;98480.81;4811255;29;20117;-83
2022/04/11 10:08:58;;;;;;;0.70;0.70;;;;;;;3.15;87.50;98470.53;4820886;29;20068;-83
2022/04/11 10:11:25;;;;;;;0.75;0.75;;;;;;;3.25;87.33;98478.91;4812211;29;20047;-83
2022/04/11 10:13:53;;;;;;;0.60;0.60;;;;;;;3.35;87.28;98475.81;4823746;29;20051;-83
2022/04/11 10:16:20;;;;;;;0.60;0.60;;;;;;;3.42;87.32;98491.81;4813152;29;20058;-83
2022/04/11 10:19:00;;;;;;;0.70;0.70;;;;;;;3.39;87.50;98489.53;4802858;29;20058;-83
2022/04/11 10:21:28;;;;;;;0.60;0.60;;;;;;;3.32;87.24;98494.91;4833920;29;20062;-83
2022/04/11 10:24:05;;;;;;;0.68;0.68;;;;;;;3.25;87.26;98500.25;4835320;29;20050;-83
2022/04/11 10:26:46;;;;;;;0.63;0.63;;;;;;;3.22;86.96;98492.66;4810443;29;20077;-84
2022/04/11 10:29:40;;;;;;;0.70;0.70;;;;;;;3.34;86.78;98490.19;4805001;29;20080;-86
2022/04/11 10:32:13;;;;;;;0.70;0.70;;;;;;;3.43;86.57;98486.25;4813825;29;20069;-85
2022/04/11 10:35:09;;;;;;;0.80;0.80;;;;;;;3.81;85.68;98474.78;4810569;29;20100;-85
2022/04/11 10:37:40;;;;;;;0.70;0.70;;;;;;;3.77;85.52;98480.75;4799068;29;20080;-85
2022/04/11 10:40:16;;;;;;;0.77;0.77;;;;;;;3.84;85.47;98493.03;4801961;29;20086;-85
2022/04/11 10:43:01;;;;;;;0.70;0.70;;;;;;;3.80;85.05;98499.84;4803953;29;20054;-85
2022/04/11 10:45:30;;;;;;;0.70;0.70;;;;;;;3.65;84.76;98486.78;4785976;29;20058;-86
2022/04/11 10:47:57;;;;;;;0.60;0.60;;;;;;;3.59;85.33;98503.59;4788786;29;20087;-85
2022/04/11 10:50:26;;;;;;;0.70;0.70;;;;;;;3.48;85.53;98514.97;4803953;29;20469;-85
2022/04/11 10:52:55;;;;;;;0.60;0.60;;;;;;;3.43;86.04;98518.25;4788475;29;20480;-85
2022/04/11 10:55:23;;;;;;;0.60;0.60;;;;;;;3.42;86.38;98524.63;4803102;29;20058;-85
2022/04/11 10:57:57;;;;;;;0.60;0.60;;;;;;;3.48;86.48;98518.44;4803267;29;20055;-85
2022/04/11 11:00:34;;;;;;;0.70;0.70;;;;;;;3.54;86.09;98524.78;4803379;29;20146;-85
2022/04/11 11:03:04;;;;;;;0.63;0.63;;;;;;;3.48;86.31;98520.28;4802823;29;20527;-84
2022/04/11 11:05:39;;;;;;;0.70;0.70;;;;;;;3.55;86.24;98514.94;4803537;29;20146;-85
2022/04/11 11:08:13;;;;;;;0.75;0.75;;;;;;;3.59;86.15;98521.47;4803287;29;20119;-85
2022/04/11 11:10:57;;;;;;;0.70;0.70;;;;;;;3.57;85.97;98515.53;4802817;29;20055;-85
2022/04/11 11:13:30;;;;;;;0.70;0.70;;;;;;;3.56;85.96;98529.91;4789994;29;20055;-85
2022/04/11 11:16:01;;;;;;;0.60;0.60;;;;;;;3.59;85.88;98526.81;4808271;29;20135;-83
2022/04/11 11:18:50;;;;;;;0.60;0.60;;;;;;;3.59;85.80;98518.81;4809388;29;20070;-84
2022/04/11 11:21:32;;;;;;;0.70;0.70;;;;;;;3.72;85.52;98515.25;4825792;29;20046;-86
2022/04/11 11:24:02;;;;;;;0.70;0.70;;;;;;;3.74;85.35;98527.38;4830874;29;20050;-84
2022/04/11 11:26:46;;;;;;;0.60;0.60;;;;;;;3.76;84.96;98536.00;4810700;29;20088;-86
2022/04/11 11:29:40;;;;;;;0.70;0.70;;;;;;;3.76;85.32;98536.00;4804190;29;20078;-85
2022/04/11 11:32:12;;;;;;;0.60;0.60;;;;;;;3.73;85.47;98547.09;4805828;29;20503;-85
2022/04/11 11:34:41;;;;;;;0.60;0.60;;;;;;;3.71;85.56;98540.34;4806280;29;20115;-83
2022/04/11 11:37:12;;;;;;;0.70;0.70;;;;;;;3.72;85.39;98528.59;4811991;29;20120;-85
2022/04/11 11:39:45;;;;;;;0.60;0.60;;;;;;;3.70;nan;98518.16;4813621;29;20055;-85
2022/04/11 11:42:18;;;;;;;0.60;0.60;;;;;;;3.67;85.38;98513.22;4809990;29;20138;-84
2022/04/11 11:44:49;;;;;;;0.60;0.60;;;;;;;3.66;85.40;98538.28;4809444;29;20087;-86
2022/04/11 11:47:25;;;;;;;0.60;0.60;;;;;;;3.66;85.66;98536.44;4810676;29;20086;-84
2022/04/11 11:50:00;;;;;;;0.60;0.60;;;;;;;3.74;85.58;98538.03;4812455;29;20073;-85
2022/04/11 11:52:29;;;;;;;0.60;0.60;;;;;;;3.73;85.27;98536.41;4808116;29;20050;-84
2022/04/11 11:54:56;;;;;;;0.50;0.50;;;;;;;3.65;85.14;98528.66;4816852;29;20062;-86
2022/04/11 11:57:29;;;;;;;0.70;0.70;;;;;;;3.66;85.32;98532.94;4823872;29;20056;-83
2022/04/11 12:00:01;;;;;;;0.60;0.60;;;;;;;3.68;85.40;98537.03;4821569;29;20487;-85